createdAt,value
2023-02-20T07:52:53.587Z,88.90
2023-02-20T07:55:21.615Z,89.40
2023-02-20T07:57:54.505Z,89.40
2023-02-20T08:00:23.762Z,89.50
2023-02-20T08:02:51.119Z,88.70
2023-02-20T08:05:18.518Z,88.00
2023-02-20T08:07:49.639Z,87.70
2023-02-20T08:10:22.712Z,87.40
2023-02-20T08:12:51.427Z,86.90
2023-02-20T08:15:21.923Z,87.10
2023-02-20T08:17:51.425Z,87.00
2023-02-20T08:20:21.912Z,86.80
2023-02-20T08:22:51.378Z,87.00
2023-02-20T08:25:19.457Z,86.50
2023-02-20T08:27:49.961Z,86.00
2023-02-20T08:30:28.076Z,86.00
2023-02-20T08:32:56.046Z,85.60
2023-02-20T08:35:25.085Z,85.40
2023-02-20T08:37:52.538Z,85.00
2023-02-20T08:40:20.054Z,84.80
2023-02-20T08:42:50.974Z,84.40
2023-02-20T08:45:18.344Z,84.90
2023-02-20T08:47:45.670Z,83.90
2023-02-20T08:50:13.016Z,83.80
2023-02-20T08:52:42.285Z,83.50
2023-02-20T08:55:10.810Z,83.80
2023-02-20T08:57:38.347Z,82.90
2023-02-20T09:00:07.124Z,82.40
2023-02-20T09:02:34.487Z,82.50
2023-02-20T09:05:01.774Z,81.90
2023-02-20T09:07:29.093Z,81.30
2023-02-20T09:09:56.392Z,81.10
2023-02-20T09:12:23.758Z,80.40
2023-02-20T09:14:51.246Z,80.10
2023-02-20T09:17:19.166Z,79.10
2023-02-20T09:19:46.505Z,78.70
2023-02-20T09:22:13.917Z,78.30
2023-02-20T09:24:42.008Z,78.20
2023-02-20T09:27:10.046Z,78.30
2023-02-20T09:29:41.034Z,77.30
2023-02-20T09:32:08.563Z,77.40
2023-02-20T09:34:36.085Z,76.80
2023-02-20T09:37:04.813Z,76.10
2023-02-20T09:39:32.458Z,75.40
2023-02-20T09:43:15.364Z,74.70
2023-02-20T09:46:14.308Z,73.60
2023-02-20T09:49:15.692Z,73.60
2023-02-20T09:51:53.747Z,72.90
2023-02-20T09:54:49.437Z,71.90
2023-02-20T09:57:28.525Z,72.10
2023-02-20T10:00:35.465Z,72.00
2023-02-20T10:03:45.579Z,69.80
2023-02-20T10:06:26.461Z,69.30
2023-02-20T10:08:54.826Z,68.50
2023-02-20T10:12:11.767Z,67.50
2023-02-20T10:15:11.349Z,66.70
2023-02-20T10:18:18.177Z,66.10
2023-02-20T10:21:11.064Z,66.00
2023-02-20T10:24:05.680Z,66.20
2023-02-20T10:26:43.486Z,64.90
2023-02-20T10:29:28.649Z,64.00
2023-02-20T10:32:15.510Z,64.70
2023-02-20T10:35:11.154Z,62.50
2023-02-20T10:37:53.365Z,61.50
2023-02-20T10:40:48.171Z,61.90
2023-02-20T10:43:53.589Z,61.90
2023-02-20T10:46:54.125Z,60.10
2023-02-20T10:50:08.136Z,58.10
2023-02-20T10:53:27.705Z,57.80
2023-02-20T10:56:27.064Z,57.20
2023-02-20T10:59:27.497Z,56.30
2023-02-20T11:01:59.466Z,55.00
2023-02-20T11:04:37.665Z,55.40
2023-02-20T11:07:15.890Z,53.90
2023-02-20T11:09:43.340Z,53.50
2023-02-20T11:12:44.464Z,52.60
2023-02-20T11:15:30.703Z,53.30
2023-02-20T11:17:59.960Z,53.10
2023-02-20T11:20:33.309Z,52.30
2023-02-20T11:23:02.137Z,51.30
2023-02-20T11:25:36.588Z,51.30
2023-02-20T11:28:27.028Z,51.10
2023-02-20T11:31:07.586Z,50.40
2023-02-20T11:33:45.594Z,50.30
2023-02-20T11:36:31.161Z,49.90
2023-02-20T11:39:03.575Z,49.80
2023-02-20T11:41:36.764Z,48.20
2023-02-20T11:44:14.596Z,47.80
2023-02-20T11:46:44.332Z,47.10
2023-02-20T11:49:28.267Z,45.80
2023-02-20T11:52:19.727Z,45.40
2023-02-20T11:55:08.917Z,45.90
2023-02-20T11:57:44.776Z,45.80
2023-02-20T12:00:46.906Z,46.00
2023-02-20T12:03:34.432Z,45.90
2023-02-20T12:06:32.691Z,45.60
2023-02-20T12:09:04.778Z,44.50
2023-02-20T12:11:32.134Z,44.10
2023-02-20T12:14:01.194Z,43.50
2023-02-20T12:16:49.241Z,44.40
2023-02-20T12:19:49.397Z,44.40
2023-02-20T12:22:43.725Z,43.20
2023-02-20T12:26:17.292Z,42.00
2023-02-20T12:30:48.403Z,41.80
2023-02-20T12:34:07.095Z,41.00
2023-02-20T12:37:24.641Z,40.00
2023-02-20T12:40:29.024Z,40.80
2023-02-20T12:43:47.411Z,38.80
2023-02-20T12:46:29.089Z,38.50
2023-02-20T12:49:48.092Z,39.60
2023-02-20T12:52:45.715Z,39.20
2023-02-20T12:56:03.429Z,37.70
2023-02-20T12:59:07.901Z,38.10
2023-02-20T13:01:40.183Z,38.60
2023-02-20T13:04:53.656Z,39.00
2023-02-20T13:07:46.199Z,39.00
2023-02-20T13:10:42.693Z,39.70
2023-02-20T13:13:11.715Z,38.90
2023-02-20T13:16:14.110Z,39.40
2023-02-20T13:19:03.298Z,38.50
2023-02-20T13:21:32.808Z,38.90
2023-02-20T13:24:41.709Z,38.40
2023-02-20T13:27:32.829Z,38.40
2023-02-20T13:30:22.282Z,38.30
2023-02-20T13:33:09.578Z,38.30
2023-02-20T13:35:56.624Z,37.50
2023-02-20T13:38:28.635Z,38.20
2023-02-20T13:40:55.722Z,37.80
2023-02-20T13:43:22.760Z,39.30
2023-02-20T13:46:17.935Z,39.40
2023-02-20T13:48:52.236Z,39.00
2023-02-20T13:51:21.136Z,39.40
2023-02-20T13:54:12.611Z,39.10
2023-02-20T13:56:45.669Z,39.00
2023-02-20T13:59:19.766Z,39.60
2023-02-20T14:02:24.190Z,39.80
2023-02-20T14:05:11.069Z,40.00
2023-02-20T14:07:45.810Z,39.50
2023-02-20T14:10:34.798Z,39.90
2023-02-20T14:13:30.894Z,39.90
2023-02-20T14:16:36.026Z,40.20
2023-02-20T14:19:28.473Z,40.50
2023-02-20T14:21:55.851Z,41.30
2023-02-20T14:24:29.843Z,42.50
2023-02-20T14:26:57.593Z,41.70
2023-02-20T14:29:35.452Z,42.10
2023-02-20T14:32:06.418Z,42.60
2023-02-20T14:35:36.221Z,43.40
2023-02-20T14:39:04.555Z,43.50
2023-02-20T14:41:32.489Z,44.70
2023-02-20T14:44:15.952Z,44.80
2023-02-20T14:46:43.275Z,44.50
2023-02-20T14:49:27.442Z,44.50
2023-02-20T14:52:10.261Z,45.00
2023-02-20T14:54:44.635Z,45.40
2023-02-20T14:57:16.129Z,46.00
2023-02-20T14:59:43.916Z,45.80
2023-02-20T15:02:34.266Z,46.20
2023-02-20T15:05:12.670Z,45.90
2023-02-20T15:07:41.042Z,46.10
2023-02-20T15:10:43.692Z,45.70
2023-02-20T15:13:16.465Z,46.20
2023-02-20T15:15:51.681Z,46.60
2023-02-20T15:18:43.676Z,46.40
2023-02-20T15:21:14.042Z,46.80
2023-02-20T15:23:46.141Z,46.50
2023-02-20T15:26:33.839Z,45.70
2023-02-20T15:29:27.710Z,46.50
2023-02-20T15:32:25.569Z,45.90
2023-02-20T15:34:58.878Z,46.60
2023-02-20T15:37:43.123Z,46.80
2023-02-20T15:40:29.185Z,46.00
2023-02-20T15:42:57.628Z,46.20
2023-02-20T15:45:31.188Z,46.10
2023-02-20T15:47:59.079Z,46.30
2023-02-20T15:50:27.425Z,46.90
2023-02-20T15:52:58.622Z,46.10
2023-02-20T15:55:35.344Z,46.40
2023-02-20T15:58:04.611Z,45.70
2023-02-20T16:00:34.274Z,45.30
2023-02-20T16:03:02.603Z,45.50
2023-02-20T16:05:29.973Z,45.60
2023-02-20T16:07:57.378Z,45.30
2023-02-20T16:10:25.863Z,45.00
2023-02-20T16:12:59.693Z,44.90
2023-02-20T16:15:27.181Z,44.90
2023-02-20T16:17:55.985Z,44.90
2023-02-20T16:20:30.900Z,44.80
2023-02-20T16:22:58.340Z,44.70
2023-02-20T16:25:26.089Z,44.90
2023-02-20T16:27:56.321Z,45.00
2023-02-20T16:30:41.673Z,44.30
2023-02-20T16:33:27.644Z,44.60
2023-02-20T16:35:55.905Z,44.60
2023-02-20T16:38:25.303Z,44.50
2023-02-20T16:40:55.308Z,45.00
2023-02-20T16:43:23.982Z,45.40
2023-02-20T16:45:51.961Z,45.60
2023-02-20T16:48:21.689Z,45.80
2023-02-20T16:50:53.127Z,46.00
2023-02-20T16:53:21.309Z,46.50
2023-02-20T16:55:49.325Z,46.60
2023-02-20T16:58:16.829Z,46.80
2023-02-20T17:00:56.583Z,47.10
2023-02-20T17:03:24.779Z,47.30
2023-02-20T17:05:59.290Z,47.50
2023-02-20T17:08:27.820Z,47.90
2023-02-20T17:10:55.654Z,48.00
2023-02-20T17:13:22.948Z,48.50
2023-02-20T17:15:50.309Z,48.70
2023-02-20T17:18:17.620Z,48.20
2023-02-20T17:20:45.021Z,48.90
2023-02-20T17:23:12.303Z,48.60
2023-02-20T17:25:39.579Z,48.90
2023-02-20T17:28:07.017Z,48.70
2023-02-20T17:30:34.791Z,49.10
2023-02-20T17:33:02.813Z,49.10
2023-02-20T17:35:30.141Z,49.30
2023-02-20T17:37:57.430Z,49.60
2023-02-20T17:40:24.732Z,50.10
2023-02-20T17:42:52.074Z,51.00
2023-02-20T17:45:19.360Z,51.70
2023-02-20T17:47:46.799Z,52.10
2023-02-20T17:50:18.779Z,52.60
2023-02-20T17:52:47.042Z,52.90
2023-02-20T17:55:21.975Z,53.00
2023-02-20T17:57:49.908Z,53.20
2023-02-20T18:00:19.910Z,53.30
2023-02-20T18:02:47.325Z,54.10
2023-02-20T18:05:14.653Z,54.30
2023-02-20T18:07:42.046Z,54.30
2023-02-20T18:10:09.545Z,54.80
2023-02-20T18:12:37.024Z,55.60
2023-02-20T18:15:04.885Z,56.60
2023-02-20T18:17:32.473Z,56.70
2023-02-20T18:19:59.748Z,56.70
2023-02-20T18:22:27.023Z,56.80
2023-02-20T18:24:54.300Z,57.10
2023-02-20T18:27:22.057Z,57.80
2023-02-20T18:29:49.380Z,58.60
2023-02-20T18:32:16.809Z,59.00
2023-02-20T18:34:44.134Z,59.60
2023-02-20T18:37:11.598Z,59.50
2023-02-20T18:39:38.898Z,60.00
2023-02-20T18:42:06.304Z,60.40
2023-02-20T18:44:33.621Z,61.10
2023-02-20T18:47:01.148Z,61.50
2023-02-20T18:49:28.777Z,62.10
2023-02-20T18:51:56.113Z,62.50
2023-02-20T18:54:27.094Z,63.00
2023-02-20T18:56:55.188Z,63.30
2023-02-20T18:59:23.599Z,63.50
2023-02-20T19:01:51.080Z,64.20
2023-02-20T19:04:18.450Z,63.70
2023-02-20T19:06:47.007Z,64.00
2023-02-20T19:09:24.486Z,64.10
2023-02-20T19:11:56.544Z,64.40
2023-02-20T19:14:28.862Z,63.90
2023-02-20T19:17:00.760Z,63.70
2023-02-20T19:19:31.934Z,64.30
2023-02-20T19:21:59.586Z,64.70
2023-02-20T19:24:27.414Z,64.20
2023-02-20T19:26:54.722Z,64.60
2023-02-20T19:29:22.068Z,64.80
2023-02-20T19:31:49.605Z,64.60
2023-02-20T19:34:17.261Z,64.90
2023-02-20T19:36:44.575Z,65.30
2023-02-20T19:39:14.962Z,64.50
2023-02-20T19:41:42.490Z,64.90
2023-02-20T19:44:17.849Z,64.90
2023-02-20T19:46:45.306Z,64.90
2023-02-20T19:49:12.751Z,64.50
2023-02-20T19:51:48.213Z,64.40
2023-02-20T19:54:18.902Z,64.30
2023-02-20T19:57:00.935Z,64.40
2023-02-20T19:59:30.188Z,64.60
2023-02-20T20:02:00.602Z,65.10
2023-02-20T20:04:33.757Z,65.80
2023-02-20T20:07:05.049Z,65.80
2023-02-20T20:09:37.033Z,65.80
2023-02-20T20:12:26.362Z,66.10
2023-02-20T20:14:55.794Z,66.10
2023-02-20T20:17:23.206Z,66.90
2023-02-20T20:20:00.494Z,67.00
2023-02-20T20:22:30.583Z,67.10
2023-02-20T20:24:59.359Z,67.40
2023-02-20T20:27:26.761Z,67.30
2023-02-20T20:29:54.113Z,67.40
2023-02-20T20:32:22.325Z,67.30
2023-02-20T20:34:55.411Z,67.20
2023-02-20T20:37:27.586Z,67.70
2023-02-20T20:40:01.008Z,67.60
2023-02-20T20:42:29.148Z,67.80
2023-02-20T20:44:59.320Z,67.70
2023-02-20T20:47:30.705Z,67.90
2023-02-20T20:49:59.464Z,68.10
2023-02-20T20:52:30.428Z,67.80
2023-02-20T20:55:02.797Z,67.90
2023-02-20T20:57:38.028Z,67.90
2023-02-20T21:00:19.656Z,67.90
2023-02-20T21:02:47.366Z,67.80
2023-02-20T21:05:14.842Z,68.00
2023-02-20T21:07:42.405Z,68.20
2023-02-20T21:10:11.234Z,68.00
2023-02-20T21:12:39.296Z,68.10
2023-02-20T21:15:10.657Z,68.30
2023-02-20T21:17:41.681Z,68.40
2023-02-20T21:20:21.493Z,68.10
2023-02-20T21:22:51.002Z,68.80
2023-02-20T21:25:27.458Z,68.30
2023-02-20T21:27:57.134Z,69.00
2023-02-20T21:30:26.892Z,68.30
2023-02-20T21:32:55.131Z,68.60
2023-02-20T21:35:23.559Z,68.30
2023-02-20T21:37:51.225Z,68.20
2023-02-20T21:40:19.850Z,68.20
2023-02-20T21:43:05.698Z,68.50
2023-02-20T21:45:36.173Z,68.40
2023-02-20T21:48:05.342Z,68.10
2023-02-20T21:50:32.896Z,68.10
2023-02-20T21:53:01.151Z,68.20
2023-02-20T21:55:29.218Z,68.30
2023-02-20T21:57:56.878Z,68.40
2023-02-20T22:00:24.700Z,68.30
2023-02-20T22:02:52.096Z,68.60
2023-02-20T22:05:19.510Z,68.70
2023-02-20T22:08:05.516Z,68.80
2023-02-20T22:10:51.527Z,68.70
2023-02-20T22:13:37.520Z,68.90
2023-02-20T22:16:23.459Z,69.00
2023-02-20T22:19:09.373Z,69.40
2023-02-20T22:21:55.147Z,69.70
2023-02-20T22:24:41.504Z,69.70
2023-02-20T22:27:29.065Z,70.20
2023-02-20T22:30:15.653Z,70.60
2023-02-20T22:33:01.587Z,70.50
2023-02-20T22:35:47.512Z,71.00
2023-02-20T22:38:33.384Z,71.20
2023-02-20T22:41:19.283Z,71.30
2023-02-20T22:44:05.399Z,71.60
2023-02-20T22:46:51.436Z,71.50
2023-02-20T22:49:37.367Z,71.10
2023-02-20T22:52:23.257Z,71.50
2023-02-20T22:55:09.550Z,71.50
2023-02-20T22:57:55.579Z,71.50
2023-02-20T23:00:41.421Z,71.70
2023-02-20T23:03:27.284Z,71.90
2023-02-20T23:06:18.383Z,72.80
